createdAt,value
2023-02-25T00:01:08.552Z,47
2023-02-25T00:06:25.778Z,49
2023-02-25T00:11:42.488Z,44
2023-02-25T00:16:59.013Z,45
2023-02-25T00:22:15.918Z,46
2023-02-25T00:27:32.346Z,44
2023-02-25T00:32:48.503Z,46
2023-02-25T00:38:15.269Z,43
2023-02-25T00:43:21.652Z,46
2023-02-25T00:48:38.420Z,45
2023-02-25T00:53:54.858Z,40
2023-02-25T00:59:11.897Z,44
2023-02-25T01:04:28.297Z,45
2023-02-25T01:09:44.722Z,42
2023-02-25T01:15:01.306Z,44
2023-02-25T01:20:18.013Z,45
2023-02-25T01:25:34.447Z,42
2023-02-25T01:30:51.573Z,45
2023-02-25T01:36:08.143Z,46
2023-02-25T01:41:24.583Z,45
2023-02-25T01:46:41.700Z,48
2023-02-25T01:51:59.126Z,46
2023-02-25T01:57:16.110Z,45
2023-02-25T02:02:32.582Z,46
2023-02-25T02:07:49.253Z,45
2023-02-25T02:13:05.691Z,42
2023-02-25T02:18:22.088Z,40
2023-02-25T02:23:38.508Z,44
2023-02-25T02:28:54.818Z,44
2023-02-25T02:34:11.573Z,43
2023-02-25T02:39:28.316Z,45
2023-02-25T02:44:45.081Z,40
2023-02-25T02:50:01.969Z,44
2023-02-25T02:55:18.982Z,45
2023-02-25T03:00:35.164Z,43
2023-02-25T03:05:51.253Z,41
2023-02-25T03:11:07.690Z,41
2023-02-25T03:16:25.162Z,40
2023-02-25T03:21:41.371Z,42
2023-02-25T03:26:57.804Z,37
2023-02-25T03:32:15.184Z,37
2023-02-25T03:37:31.732Z,36
2023-02-25T03:42:48.738Z,38
2023-02-25T03:48:05.682Z,35
2023-02-25T03:53:21.814Z,36
2023-02-25T03:58:38.815Z,34
2023-02-25T04:03:55.096Z,34
2023-02-25T04:09:11.238Z,36
2023-02-25T04:14:27.625Z,38
2023-02-25T04:19:44.342Z,34
2023-02-25T04:25:00.768Z,37
2023-02-25T04:30:17.226Z,37
2023-02-25T04:35:33.341Z,40
2023-02-25T04:40:49.522Z,34
2023-02-25T04:46:06.466Z,39
2023-02-25T04:51:22.864Z,35
2023-02-25T04:56:39.288Z,38
2023-02-25T05:01:56.288Z,41
2023-02-25T05:07:12.638Z,38
2023-02-25T05:12:29.064Z,38
2023-02-25T05:17:45.522Z,40
2023-02-25T05:23:02.974Z,40
2023-02-25T05:28:19.399Z,38
2023-02-25T05:33:35.777Z,39
2023-02-25T05:38:52.370Z,41
2023-02-25T05:44:09.376Z,38
2023-02-25T05:49:26.033Z,39
2023-02-25T05:54:43.035Z,39
2023-02-25T05:59:59.156Z,37
2023-02-25T06:05:15.357Z,38
2023-02-25T06:10:31.788Z,34
2023-02-25T06:15:48.189Z,38
2023-02-25T06:21:04.594Z,40
2023-02-25T06:26:20.981Z,43
2023-02-25T06:31:37.838Z,40
2023-02-25T06:36:54.870Z,40
2023-02-25T06:42:11.107Z,45
2023-02-25T06:47:28.060Z,44
2023-02-25T06:52:44.833Z,40
2023-02-25T06:58:01.217Z,42
2023-02-25T07:03:17.848Z,44
2023-02-25T07:08:34.061Z,52
2023-02-25T07:13:51.382Z,47
2023-02-25T07:19:08.151Z,46
2023-02-25T07:24:24.616Z,43
2023-02-25T07:29:41.063Z,47
2023-02-25T07:34:57.813Z,55
2023-02-25T07:40:14.359Z,51
2023-02-25T07:45:30.788Z,48
2023-02-25T07:50:47.229Z,52
2023-02-25T07:56:03.419Z,45
2023-02-25T08:01:19.588Z,42
2023-02-25T08:06:36.284Z,44
2023-02-25T08:11:53.483Z,48
2023-02-25T08:17:09.626Z,44
2023-02-25T08:22:26.899Z,49
2023-02-25T08:27:43.436Z,49
2023-02-25T08:33:00.556Z,57
2023-02-25T08:38:17.587Z,74
2023-02-25T08:43:34.138Z,52
2023-02-25T08:48:50.596Z,52
2023-02-25T08:54:09.269Z,51
2023-02-25T08:59:25.462Z,52
2023-02-25T09:04:41.645Z,54
2023-02-25T09:09:58.454Z,48
2023-02-25T09:15:14.635Z,52
2023-02-25T09:20:31.024Z,49
2023-02-25T09:25:47.207Z,45
2023-02-25T09:31:03.895Z,45
2023-02-25T09:36:20.234Z,41
2023-02-25T09:41:37.184Z,50
2023-02-25T09:46:53.913Z,42
2023-02-25T09:52:10.075Z,45
2023-02-25T09:57:26.250Z,38
2023-02-25T10:02:43.390Z,40
2023-02-25T10:08:00.241Z,43
2023-02-25T10:13:16.765Z,45
2023-02-25T10:18:33.689Z,41
2023-02-25T10:23:50.134Z,40
2023-02-25T10:29:06.273Z,39
2023-02-25T10:34:22.398Z,38
2023-02-25T10:39:38.788Z,39
2023-02-25T10:44:55.425Z,41
2023-02-25T10:50:11.540Z,41
2023-02-25T10:55:27.712Z,42
2023-02-25T11:00:44.669Z,40
2023-02-25T11:06:01.271Z,36
2023-02-25T11:11:18.218Z,41
2023-02-25T11:16:34.386Z,43
2023-02-25T11:21:50.740Z,36
2023-02-25T11:27:07.217Z,37
2023-02-25T11:32:23.738Z,35
2023-02-25T11:37:41.940Z,35
2023-02-25T11:42:56.150Z,35
2023-02-25T11:48:13.100Z,34
2023-02-25T11:53:29.902Z,37
2023-02-25T11:58:46.221Z,29
2023-02-25T12:04:03.134Z,76
2023-02-25T12:09:19.537Z,31
2023-02-25T12:14:35.661Z,26
2023-02-25T12:19:52.013Z,29
2023-02-25T12:25:08.433Z,40
2023-02-25T12:30:24.831Z,32
2023-02-25T12:35:41.188Z,31
2023-02-25T12:40:58.284Z,44
2023-02-25T12:46:14.655Z,34
2023-02-25T12:51:30.773Z,33
2023-02-25T12:56:47.824Z,38
2023-02-25T13:02:04.222Z,38
2023-02-25T13:07:20.313Z,35
2023-02-25T13:12:36.744Z,42
2023-02-25T13:17:53.133Z,46
2023-02-25T13:23:09.529Z,36
2023-02-25T13:28:26.525Z,41
2023-02-25T13:33:42.658Z,36
2023-02-25T13:38:59.042Z,44
2023-02-25T13:44:16.092Z,41
2023-02-25T13:49:32.440Z,37
2023-02-25T13:54:49.178Z,38
2023-02-25T14:00:05.606Z,39
2023-02-25T14:05:23.881Z,34
2023-02-25T14:10:38.862Z,34
2023-02-25T14:15:55.726Z,36
2023-02-25T14:21:11.979Z,31
2023-02-25T14:26:28.928Z,37
2023-02-25T14:31:45.537Z,32
2023-02-25T14:37:01.728Z,34
2023-02-25T14:42:18.676Z,33
2023-02-25T14:47:35.090Z,34
2023-02-25T14:52:51.466Z,37
2023-02-25T14:58:07.934Z,33
2023-02-25T15:03:24.324Z,32
2023-02-25T15:08:40.671Z,31
2023-02-25T15:13:57.091Z,35
2023-02-25T15:19:14.771Z,38
2023-02-25T15:24:31.040Z,38
2023-02-25T15:29:47.454Z,33
2023-02-25T15:35:03.855Z,32
2023-02-25T15:40:20.785Z,27
2023-02-25T15:45:37.283Z,28
2023-02-25T15:50:53.646Z,20
2023-02-25T15:56:09.722Z,27
2023-02-25T16:01:26.865Z,32
2023-02-25T16:06:42.828Z,28
2023-02-25T16:11:59.623Z,54
2023-02-25T16:17:15.996Z,41
2023-02-25T16:22:32.135Z,38
2023-02-25T16:27:48.256Z,34
2023-02-25T16:33:04.706Z,40
2023-02-25T16:38:21.460Z,49
2023-02-25T16:43:38.478Z,45
2023-02-25T16:48:54.866Z,45
2023-02-25T16:54:12.080Z,51
2023-02-25T16:59:29.735Z,40
2023-02-25T17:04:46.201Z,38
2023-02-25T17:10:03.444Z,40
2023-02-25T17:15:19.643Z,36
2023-02-25T17:20:36.597Z,38
2023-02-25T17:25:53.017Z,33
2023-02-25T17:31:09.668Z,39
2023-02-25T17:36:26.219Z,56
2023-02-25T17:41:42.294Z,41
2023-02-25T17:46:58.717Z,37
2023-02-25T17:52:15.243Z,35
2023-02-25T17:57:31.679Z,37
2023-02-25T18:02:48.433Z,36
2023-02-25T18:08:04.786Z,36
2023-02-25T18:13:21.772Z,38
2023-02-25T18:18:38.622Z,35
2023-02-25T18:23:54.847Z,35
2023-02-25T18:29:10.992Z,34
2023-02-25T18:34:27.928Z,36
2023-02-25T18:39:45.084Z,41
2023-02-25T18:45:02.093Z,47
2023-02-25T18:50:18.261Z,42
2023-02-25T18:55:35.244Z,46
2023-02-25T19:00:51.426Z,46
2023-02-25T19:06:07.579Z,44
2023-02-25T19:11:24.021Z,50
2023-02-25T19:16:40.683Z,47
2023-02-25T19:21:56.806Z,47
2023-02-25T19:27:13.306Z,48
2023-02-25T19:32:30.122Z,58
2023-02-25T19:37:46.517Z,53
2023-02-25T19:43:03.516Z,46
2023-02-25T19:48:19.973Z,38
2023-02-25T19:53:36.462Z,37
2023-02-25T19:58:52.762Z,40
2023-02-25T20:04:09.302Z,53
2023-02-25T20:09:25.646Z,47
2023-02-25T20:14:42.589Z,46
2023-02-25T20:19:58.985Z,46
2023-02-25T20:25:15.685Z,53
2023-02-25T20:30:32.131Z,58
2023-02-25T20:35:48.418Z,62
2023-02-25T20:41:05.132Z,57
2023-02-25T20:46:21.849Z,56
2023-02-25T20:51:38.081Z,54
2023-02-25T20:56:55.146Z,56
2023-02-25T21:02:11.989Z,58
2023-02-25T21:07:28.462Z,67
2023-02-25T21:12:45.431Z,78
2023-02-25T21:18:02.098Z,58
2023-02-25T21:23:18.854Z,51
2023-02-25T21:28:35.901Z,51
2023-02-25T21:33:52.003Z,41
2023-02-25T21:39:13.497Z,15
2023-02-25T21:44:24.779Z,8
2023-02-25T21:49:41.131Z,4
2023-02-25T21:54:57.510Z,6
2023-02-25T22:00:13.893Z,3
2023-02-25T22:05:30.236Z,1
2023-02-25T22:10:46.606Z,0
2023-02-25T22:16:03.061Z,0
2023-02-25T22:21:19.345Z,1
2023-02-25T22:26:35.724Z,0
2023-02-25T22:31:52.225Z,0
2023-02-25T22:37:08.430Z,0
2023-02-25T22:42:24.821Z,0
2023-02-25T22:47:41.194Z,0
2023-02-25T22:52:58.031Z,0
2023-02-25T22:58:14.446Z,0
2023-02-25T23:03:30.815Z,0
2023-02-25T23:08:47.175Z,0
2023-02-25T23:14:03.501Z,0
2023-02-25T23:19:19.869Z,0
2023-02-25T23:24:36.263Z,0
2023-02-25T23:29:52.573Z,0
2023-02-25T23:35:08.988Z,0
2023-02-25T23:40:25.315Z,0
2023-02-25T23:45:46.239Z,0
2023-02-25T23:50:58.056Z,0
2023-02-25T23:56:14.413Z,0
